createdAt,value
2023-05-08T00:00:28.183Z,0.00
2023-05-08T00:01:28.217Z,0.00
2023-05-08T00:02:28.586Z,0.00
2023-05-08T00:03:28.617Z,0.00
2023-05-08T00:04:28.678Z,0.00
2023-05-08T00:05:29.057Z,0.00
2023-05-08T00:06:28.821Z,0.00
2023-05-08T00:07:28.985Z,0.00
2023-05-08T00:08:29.025Z,0.00
2023-05-08T00:09:29.191Z,0.00
2023-05-08T00:10:29.339Z,0.00
2023-05-08T00:11:29.460Z,0.00
2023-05-08T00:12:29.749Z,0.00
2023-05-08T00:13:29.731Z,0.00
2023-05-08T00:14:29.799Z,0.00
2023-05-08T00:15:29.951Z,0.00
2023-05-08T00:16:30.140Z,0.00
2023-05-08T00:17:30.236Z,0.00
2023-05-08T00:18:30.363Z,0.00
2023-05-08T00:19:30.668Z,0.00
2023-05-08T00:20:30.609Z,0.00
2023-05-08T00:21:30.770Z,0.00
2023-05-08T00:22:30.907Z,0.00
2023-05-08T00:23:31.049Z,0.00
2023-05-08T00:24:31.103Z,0.00
2023-05-08T00:25:31.256Z,0.00
2023-05-08T00:26:31.370Z,0.00
2023-05-08T00:27:31.574Z,0.00
2023-05-08T00:28:31.664Z,0.00
2023-05-08T00:29:31.752Z,0.00
2023-05-08T00:30:31.935Z,0.00
2023-05-08T00:31:32.040Z,0.00
2023-05-08T00:32:32.151Z,0.00
2023-05-08T00:33:32.178Z,0.00
2023-05-08T00:34:32.365Z,0.00
2023-05-08T00:35:32.439Z,0.00
2023-05-08T00:36:32.600Z,0.00
2023-05-08T00:37:32.711Z,0.00
2023-05-08T00:38:32.832Z,0.00
2023-05-08T00:39:32.943Z,0.00
2023-05-08T00:40:33.043Z,0.00
2023-05-08T00:41:33.165Z,0.00
2023-05-08T00:42:33.301Z,0.00
2023-05-08T00:43:33.421Z,0.00
2023-05-08T00:44:33.548Z,0.00
2023-05-08T00:45:33.668Z,0.00
2023-05-08T00:46:33.836Z,0.00
2023-05-08T00:47:33.936Z,0.00
2023-05-08T00:48:34.038Z,0.00
2023-05-08T00:49:34.126Z,0.00
2023-05-08T00:50:34.279Z,0.00
2023-05-08T00:51:34.466Z,0.00
2023-05-08T00:52:34.602Z,0.00
2023-05-08T00:53:34.673Z,0.00
2023-05-08T00:54:34.792Z,0.00
2023-05-08T00:55:34.901Z,0.00
2023-05-08T00:56:35.075Z,0.00
2023-05-08T00:57:35.201Z,0.00
2023-05-08T00:58:35.340Z,0.00
2023-05-08T00:59:35.510Z,0.00
2023-05-08T01:00:35.631Z,0.00
2023-05-08T01:01:35.728Z,0.00
2023-05-08T01:02:36.055Z,0.00
2023-05-08T01:03:36.074Z,0.00
2023-05-08T01:04:36.105Z,0.00
2023-05-08T01:05:36.192Z,0.00
2023-05-08T01:06:36.297Z,0.00
2023-05-08T01:07:36.421Z,0.00
2023-05-08T01:08:36.577Z,0.00
2023-05-08T01:09:36.677Z,0.00
2023-05-08T01:10:36.818Z,0.00
2023-05-08T01:11:36.886Z,0.00
2023-05-08T01:12:37.020Z,0.00
2023-05-08T01:13:37.120Z,0.00
2023-05-08T01:14:37.275Z,0.00
2023-05-08T01:15:37.437Z,0.00
2023-05-08T01:16:37.533Z,0.00
2023-05-08T01:17:37.637Z,0.00
2023-05-08T01:18:37.811Z,0.00
2023-05-08T01:19:38.028Z,0.00
2023-05-08T01:20:38.036Z,0.00
2023-05-08T01:21:38.194Z,0.00
2023-05-08T01:22:38.242Z,0.00
2023-05-08T01:23:38.353Z,0.00
2023-05-08T01:24:38.476Z,0.00
2023-05-08T01:25:38.596Z,0.00
2023-05-08T01:26:38.713Z,0.00
2023-05-08T01:27:38.819Z,0.00
2023-05-08T01:28:38.991Z,0.00
2023-05-08T01:29:39.087Z,0.00
2023-05-08T01:30:39.239Z,0.00
2023-05-08T01:31:39.339Z,0.00
2023-05-08T01:32:39.453Z,0.00
2023-05-08T01:33:39.547Z,0.00
2023-05-08T01:34:39.643Z,0.00
2023-05-08T01:35:39.779Z,0.00
2023-05-08T01:36:39.886Z,0.00
2023-05-08T01:37:40.075Z,0.00
2023-05-08T01:38:40.144Z,0.00
2023-05-08T01:39:40.331Z,0.00
2023-05-08T01:40:40.409Z,0.00
2023-05-08T01:41:40.463Z,0.00
2023-05-08T01:42:40.561Z,0.00
2023-05-08T01:43:40.698Z,0.00
2023-05-08T01:44:40.828Z,0.00
2023-05-08T01:45:40.972Z,0.00
2023-05-08T01:46:41.143Z,0.00
2023-05-08T01:47:41.242Z,0.00
2023-05-08T01:48:41.266Z,0.00
2023-05-08T01:49:41.393Z,0.00
2023-05-08T01:50:41.514Z,0.00
2023-05-08T01:51:41.736Z,0.00
2023-05-08T01:52:41.764Z,0.00
2023-05-08T01:53:41.876Z,0.00
2023-05-08T01:54:42.024Z,0.00
2023-05-08T01:55:42.115Z,0.00
2023-05-08T01:56:42.256Z,0.00
2023-05-08T01:57:42.372Z,0.00
2023-05-08T01:58:42.492Z,0.00
2023-05-08T01:59:42.686Z,0.00
2023-05-08T02:00:42.789Z,0.00
2023-05-08T02:01:42.905Z,0.00
2023-05-08T02:02:43.105Z,0.00
2023-05-08T02:03:43.102Z,0.00
2023-05-08T02:04:43.200Z,0.00
2023-05-08T02:05:43.407Z,0.00
2023-05-08T02:06:43.502Z,0.00
2023-05-08T02:07:43.557Z,0.00
2023-05-08T02:08:43.685Z,0.00
2023-05-08T02:09:43.765Z,0.00
2023-05-08T02:10:43.914Z,0.00
2023-05-08T02:11:44.042Z,0.00
2023-05-08T02:12:44.138Z,0.00
2023-05-08T02:13:44.210Z,0.00
2023-05-08T02:14:44.331Z,0.00
2023-05-08T02:15:44.546Z,0.00
2023-05-08T02:16:44.710Z,0.00
2023-05-08T02:17:44.758Z,0.00
2023-05-08T02:18:44.873Z,0.00
2023-05-08T02:19:45.070Z,0.00
2023-05-08T02:20:45.073Z,0.00
2023-05-08T02:21:45.305Z,0.00
2023-05-08T02:22:45.327Z,0.00
2023-05-08T02:23:45.473Z,0.00
2023-05-08T02:24:45.571Z,0.00
2023-05-08T02:25:45.677Z,0.00
2023-05-08T02:26:45.771Z,0.00
2023-05-08T02:27:45.989Z,0.00
2023-05-08T02:28:46.077Z,0.00
2023-05-08T02:29:46.178Z,0.00
2023-05-08T02:30:46.341Z,0.00
2023-05-08T02:31:46.600Z,0.00
2023-05-08T02:32:46.669Z,0.00
2023-05-08T02:33:46.757Z,0.00
2023-05-08T02:34:58.871Z,0.00
2023-05-08T02:35:48.009Z,0.00
2023-05-08T02:36:47.215Z,0.00
2023-05-08T02:37:47.263Z,0.00
2023-05-08T02:38:47.505Z,0.00
2023-05-08T02:39:47.705Z,0.00
2023-05-08T02:40:47.778Z,0.00
2023-05-08T02:41:47.848Z,0.00
2023-05-08T02:42:47.965Z,0.00
2023-05-08T02:43:48.069Z,0.00
2023-05-08T02:44:48.176Z,0.00
2023-05-08T02:45:48.447Z,0.00
2023-05-08T02:46:48.445Z,0.00
2023-05-08T02:47:48.598Z,0.00
2023-05-08T02:48:48.743Z,0.00
2023-05-08T02:49:48.796Z,0.00
2023-05-08T02:50:49.019Z,0.00
2023-05-08T02:51:49.041Z,0.00
2023-05-08T02:52:49.147Z,0.00
2023-05-08T02:53:49.292Z,0.00
2023-05-08T02:54:49.364Z,0.00
2023-05-08T02:55:49.562Z,0.00
2023-05-08T02:56:49.595Z,0.00
2023-05-08T02:57:49.712Z,0.00
2023-05-08T02:58:49.830Z,0.00
2023-05-08T02:59:50.022Z,0.00
2023-05-08T03:00:50.077Z,0.00
2023-05-08T03:01:50.289Z,0.00
2023-05-08T03:02:50.401Z,0.00
2023-05-08T03:03:50.584Z,0.00
2023-05-08T03:04:50.530Z,0.00
2023-05-08T03:05:50.608Z,0.00
2023-05-08T03:06:50.774Z,0.00
2023-05-08T03:07:50.873Z,0.00
2023-05-08T03:08:51.038Z,0.00
2023-05-08T03:09:51.140Z,0.00
2023-05-08T03:10:51.234Z,0.00
2023-05-08T03:11:51.490Z,0.00
2023-05-08T03:12:51.532Z,0.00
2023-05-08T03:13:51.683Z,0.00
2023-05-08T03:14:51.772Z,0.00
2023-05-08T03:15:51.961Z,0.00
2023-05-08T03:16:52.073Z,0.00
2023-05-08T03:17:52.194Z,0.00
2023-05-08T03:18:52.272Z,0.00
2023-05-08T03:19:52.546Z,0.00
2023-05-08T03:20:52.573Z,0.00
2023-05-08T03:21:52.659Z,0.00
2023-05-08T03:22:52.874Z,0.00
2023-05-08T03:23:52.915Z,0.00
2023-05-08T03:24:53.023Z,0.00
2023-05-08T03:25:53.139Z,0.00
2023-05-08T03:26:53.453Z,0.00
2023-05-08T03:27:53.378Z,0.00
2023-05-08T03:28:53.505Z,0.00
2023-05-08T03:29:53.615Z,0.00
2023-05-08T03:30:53.763Z,0.00
2023-05-08T03:31:53.841Z,0.00
2023-05-08T03:32:53.979Z,0.00
2023-05-08T03:33:54.111Z,0.00
2023-05-08T03:34:54.218Z,0.00
2023-05-08T03:35:54.308Z,0.00
2023-05-08T03:36:54.456Z,0.00
2023-05-08T03:37:54.693Z,0.00
2023-05-08T03:38:54.783Z,0.00
2023-05-08T03:39:55.021Z,0.00
2023-05-08T03:40:55.000Z,0.00
2023-05-08T03:41:55.105Z,0.00
2023-05-08T03:42:55.214Z,0.00
2023-05-08T03:43:55.354Z,0.00
2023-05-08T03:44:55.476Z,0.00
2023-05-08T03:45:55.618Z,0.00
2023-05-08T03:46:55.707Z,0.00
2023-05-08T03:47:55.940Z,0.00
2023-05-08T03:48:56.010Z,0.00
2023-05-08T03:49:56.096Z,0.00
2023-05-08T03:50:56.317Z,0.00
2023-05-08T03:51:56.378Z,0.00
2023-05-08T03:52:56.526Z,0.00
2023-05-08T03:53:56.647Z,0.00
2023-05-08T03:54:56.764Z,0.00
2023-05-08T03:55:56.861Z,5.62
2023-05-08T03:56:57.052Z,5.62
2023-05-08T03:57:57.106Z,5.62
2023-05-08T03:58:57.209Z,5.62
2023-05-08T03:59:57.429Z,5.62
2023-05-08T04:00:57.453Z,5.62
2023-05-08T04:01:57.586Z,5.62
2023-05-08T04:02:57.956Z,5.62
2023-05-08T04:03:57.872Z,5.62
2023-05-08T04:04:57.928Z,11.25
2023-05-08T04:05:58.116Z,11.25
2023-05-08T04:06:58.228Z,11.25
2023-05-08T04:07:58.342Z,11.25
2023-05-08T04:08:58.444Z,11.25
2023-05-08T04:09:58.609Z,11.25
2023-05-08T04:10:58.718Z,11.25
2023-05-08T04:11:58.807Z,11.25
2023-05-08T04:12:59.078Z,16.88
2023-05-08T04:13:59.062Z,16.88
2023-05-08T04:14:59.179Z,16.88
2023-05-08T04:15:59.279Z,16.88
2023-05-08T04:16:59.466Z,16.88
2023-05-08T04:17:59.530Z,22.50
2023-05-08T04:18:59.622Z,22.50
2023-05-08T04:19:59.817Z,22.50
2023-05-08T04:20:59.843Z,22.50
2023-05-08T04:21:59.998Z,28.12
2023-05-08T04:23:00.179Z,28.12
2023-05-08T04:24:00.271Z,28.12
2023-05-08T04:25:00.382Z,28.12
2023-05-08T04:26:00.500Z,33.75
2023-05-08T04:27:00.660Z,33.75
2023-05-08T04:28:00.789Z,33.75
2023-05-08T04:29:00.887Z,33.75
2023-05-08T04:30:01.064Z,39.38
2023-05-08T04:31:01.139Z,39.38
2023-05-08T04:32:01.405Z,39.38
2023-05-08T04:33:01.453Z,39.38
2023-05-08T04:34:01.503Z,45.00
2023-05-08T04:35:01.612Z,45.00
2023-05-08T04:36:01.774Z,45.00
2023-05-08T04:37:01.864Z,50.62
2023-05-08T04:38:02.021Z,50.62
2023-05-08T04:39:02.324Z,50.62
2023-05-08T04:40:02.348Z,56.25
2023-05-08T04:41:02.453Z,61.88
2023-05-08T04:42:02.562Z,61.88
2023-05-08T04:43:02.697Z,67.50
2023-05-08T04:44:02.794Z,67.50
2023-05-08T04:45:02.911Z,73.12
2023-05-08T04:46:03.184Z,73.12
2023-05-08T04:47:03.162Z,78.75
2023-05-08T04:48:03.334Z,78.75
2023-05-08T04:49:03.427Z,84.38
2023-05-08T04:50:03.566Z,84.38
2023-05-08T04:51:03.678Z,90.00
2023-05-08T04:52:03.789Z,90.00
2023-05-08T04:53:03.921Z,90.00
2023-05-08T04:54:04.065Z,90.00
2023-05-08T04:55:04.232Z,90.00
2023-05-08T04:56:04.338Z,90.00
2023-05-08T04:57:04.455Z,90.00
2023-05-08T04:58:04.626Z,95.62
2023-05-08T04:59:04.721Z,95.62
2023-05-08T05:00:04.980Z,95.62
2023-05-08T05:01:04.911Z,101.25
2023-05-08T05:02:05.038Z,101.25
2023-05-08T05:03:05.493Z,106.88
2023-05-08T05:04:05.404Z,112.50
2023-05-08T05:05:05.356Z,106.88
2023-05-08T05:06:05.490Z,112.50
2023-05-08T05:07:05.643Z,118.12
2023-05-08T05:08:05.735Z,123.75
2023-05-08T05:09:05.883Z,123.75
2023-05-08T05:10:06.097Z,129.38
2023-05-08T05:11:06.118Z,135.00
2023-05-08T05:12:06.249Z,135.00
2023-05-08T05:13:06.405Z,140.62
2023-05-08T05:14:06.547Z,140.62
2023-05-08T05:15:06.711Z,146.25
2023-05-08T05:16:06.787Z,140.62
2023-05-08T05:17:06.869Z,140.62
2023-05-08T05:18:07.019Z,135.00
2023-05-08T05:19:07.124Z,135.00
2023-05-08T05:20:07.299Z,140.62
2023-05-08T05:21:07.355Z,146.25
2023-05-08T05:22:07.520Z,140.62
2023-05-08T05:23:07.597Z,135.00
2023-05-08T05:24:07.725Z,146.25
2023-05-08T05:25:07.821Z,157.50
2023-05-08T05:26:07.977Z,168.75
2023-05-08T05:27:08.065Z,185.62
2023-05-08T05:28:08.248Z,196.88
2023-05-08T05:29:08.297Z,196.88
2023-05-08T05:30:08.504Z,196.88
2023-05-08T05:31:08.579Z,196.88
2023-05-08T05:32:08.709Z,191.25
2023-05-08T05:33:09.040Z,185.62
2023-05-08T05:34:08.955Z,185.62
2023-05-08T05:35:09.144Z,185.62
2023-05-08T05:36:09.216Z,191.25
2023-05-08T05:37:09.306Z,196.88
2023-05-08T05:38:09.456Z,191.25
2023-05-08T05:39:09.607Z,180.00
2023-05-08T05:40:09.783Z,174.38
2023-05-08T05:41:09.876Z,163.12
2023-05-08T05:42:09.960Z,157.50
2023-05-08T05:43:10.049Z,157.50
2023-05-08T05:44:10.161Z,163.12
2023-05-08T05:45:10.382Z,174.38
2023-05-08T05:46:10.400Z,185.62
2023-05-08T05:47:10.623Z,191.25
2023-05-08T05:48:10.627Z,196.88
2023-05-08T05:49:10.699Z,202.50
2023-05-08T05:50:10.989Z,208.12
2023-05-08T05:51:10.977Z,202.50
2023-05-08T05:52:11.089Z,196.88
2023-05-08T05:53:11.209Z,191.25
2023-05-08T05:54:11.294Z,180.00
2023-05-08T05:55:11.722Z,168.75
2023-05-08T05:56:11.632Z,163.12
2023-05-08T05:57:11.725Z,157.50
2023-05-08T05:58:11.917Z,157.50
2023-05-08T05:59:12.160Z,163.12
2023-05-08T06:00:12.132Z,168.75
2023-05-08T06:01:12.250Z,174.38
2023-05-08T06:02:12.364Z,168.75
2023-05-08T06:03:12.533Z,157.50
2023-05-08T06:04:12.719Z,146.25
2023-05-08T06:05:12.994Z,140.62
2023-05-08T06:06:12.849Z,140.62
2023-05-08T06:07:12.950Z,146.25
2023-05-08T06:08:13.062Z,157.50
2023-05-08T06:09:13.153Z,168.75
2023-05-08T06:10:13.333Z,174.38
2023-05-08T06:11:13.362Z,185.62
2023-05-08T06:12:13.466Z,196.88
2023-05-08T06:13:13.667Z,213.75
2023-05-08T06:14:13.705Z,230.62
2023-05-08T06:15:14.083Z,253.12
2023-05-08T06:16:14.002Z,264.38
2023-05-08T06:17:14.142Z,275.62
2023-05-08T06:18:14.205Z,286.88
2023-05-08T06:19:14.324Z,286.88
2023-05-08T06:20:14.421Z,292.50
2023-05-08T06:21:14.551Z,303.75
2023-05-08T06:22:14.671Z,320.62
2023-05-08T06:23:14.933Z,343.12
2023-05-08T06:24:14.867Z,354.38
2023-05-08T06:25:15.132Z,365.62
2023-05-08T06:26:15.155Z,382.50
2023-05-08T06:27:15.278Z,382.50
2023-05-08T06:28:15.437Z,376.88
2023-05-08T06:29:15.501Z,365.62
2023-05-08T06:30:15.616Z,348.75
2023-05-08T06:31:15.758Z,337.50
2023-05-08T06:32:15.854Z,337.50
2023-05-08T06:33:16.026Z,331.88
2023-05-08T06:34:16.135Z,320.62
2023-05-08T06:35:16.253Z,315.00
2023-05-08T06:36:16.389Z,309.38
2023-05-08T06:37:16.509Z,303.75
2023-05-08T06:38:16.645Z,298.12
2023-05-08T06:39:16.765Z,298.12
2023-05-08T06:40:16.894Z,298.12
2023-05-08T06:41:17.007Z,309.38
2023-05-08T06:42:17.178Z,326.25
2023-05-08T06:43:17.315Z,337.50
2023-05-08T06:44:17.470Z,354.38
2023-05-08T06:45:17.559Z,376.88
2023-05-08T06:46:17.757Z,393.75
2023-05-08T06:47:17.811Z,410.62
2023-05-08T06:48:17.917Z,421.88
2023-05-08T06:49:18.016Z,433.12
2023-05-08T06:50:18.127Z,444.38
2023-05-08T06:51:18.209Z,450.00
2023-05-08T06:52:18.405Z,483.75
2023-05-08T06:53:18.481Z,495.00
2023-05-08T06:54:18.566Z,511.88
2023-05-08T06:55:18.669Z,528.75
2023-05-08T06:56:18.793Z,540.00
2023-05-08T06:57:18.939Z,545.62
2023-05-08T06:58:19.082Z,534.38
2023-05-08T06:59:19.223Z,562.50
2023-05-08T07:00:19.942Z,568.12
2023-05-08T07:01:19.546Z,573.75
2023-05-08T07:02:19.602Z,573.75
2023-05-08T07:03:19.712Z,579.38
2023-05-08T07:04:19.900Z,590.62
2023-05-08T07:05:20.213Z,663.75
2023-05-08T07:06:20.085Z,641.25
2023-05-08T07:07:20.133Z,703.12
2023-05-08T07:08:20.245Z,686.25
2023-05-08T07:09:20.369Z,703.12
2023-05-08T07:10:20.503Z,708.75
2023-05-08T07:11:20.612Z,753.75
2023-05-08T07:12:20.703Z,781.88
2023-05-08T07:13:20.923Z,804.38
2023-05-08T07:14:20.992Z,810.00
2023-05-08T07:15:26.191Z,821.25
2023-05-08T07:16:22.311Z,815.62
2023-05-08T07:17:21.371Z,793.12
2023-05-08T07:18:21.481Z,697.50
2023-05-08T07:19:22.654Z,658.12
2023-05-08T07:20:22.060Z,624.38
2023-05-08T07:21:21.849Z,624.38
2023-05-08T07:22:21.991Z,624.38
2023-05-08T07:23:22.081Z,714.38
2023-05-08T07:24:22.253Z,765.00
2023-05-08T07:25:22.354Z,770.62
2023-05-08T07:26:22.580Z,753.75
2023-05-08T07:27:22.586Z,781.88
2023-05-08T07:28:22.696Z,697.50
2023-05-08T07:29:22.829Z,675.00
2023-05-08T07:30:22.939Z,708.75
2023-05-08T07:31:23.490Z,663.75
2023-05-08T07:32:23.208Z,607.50
2023-05-08T07:33:23.324Z,635.62
2023-05-08T07:34:23.400Z,669.38
2023-05-08T07:35:23.575Z,601.88
2023-05-08T07:36:23.686Z,630.00
2023-05-08T07:37:23.817Z,585.00
2023-05-08T07:38:23.901Z,506.25
2023-05-08T07:39:24.095Z,461.25
2023-05-08T07:40:24.295Z,444.38
2023-05-08T07:41:24.369Z,421.88
2023-05-08T07:42:24.355Z,393.75
2023-05-08T07:43:24.484Z,371.25
2023-05-08T07:44:24.590Z,348.75
2023-05-08T07:45:24.734Z,337.50
2023-05-08T07:46:24.854Z,337.50
2023-05-08T07:47:24.930Z,348.75
2023-05-08T07:48:25.033Z,365.62
2023-05-08T07:49:25.179Z,371.25
2023-05-08T07:50:25.244Z,331.88
2023-05-08T07:51:25.403Z,298.12
2023-05-08T07:52:25.560Z,270.00
2023-05-08T07:53:25.606Z,264.38
2023-05-08T07:54:25.812Z,275.62
2023-05-08T07:55:25.858Z,292.50
2023-05-08T07:56:26.250Z,320.62
2023-05-08T07:57:26.092Z,365.62
2023-05-08T07:58:26.192Z,388.12
2023-05-08T07:59:26.292Z,393.75
2023-05-08T08:00:26.614Z,393.75
2023-05-08T08:01:26.613Z,399.38
2023-05-08T08:02:26.874Z,399.38
2023-05-08T08:03:26.948Z,410.62
2023-05-08T08:04:27.081Z,393.75
2023-05-08T08:05:27.113Z,376.88
2023-05-08T08:06:27.199Z,388.12
2023-05-08T08:07:27.362Z,405.00
2023-05-08T08:08:27.504Z,416.25
2023-05-08T08:09:27.568Z,438.75
2023-05-08T08:10:27.657Z,461.25
2023-05-08T08:11:27.793Z,483.75
2023-05-08T08:12:27.975Z,534.38
2023-05-08T08:13:28.127Z,590.62
2023-05-08T08:14:28.205Z,618.75
2023-05-08T08:15:28.334Z,630.00
2023-05-08T08:16:28.493Z,641.25
2023-05-08T08:17:29.186Z,635.62
2023-05-08T08:18:28.796Z,613.12
2023-05-08T08:19:28.824Z,601.88
2023-05-08T08:20:29.048Z,613.12
2023-05-08T08:21:29.098Z,630.00
2023-05-08T08:22:29.209Z,646.88
2023-05-08T08:23:29.351Z,641.25
2023-05-08T08:24:29.460Z,624.38
2023-05-08T08:25:29.558Z,618.75
2023-05-08T08:26:29.737Z,624.38
2023-05-08T08:27:29.909Z,618.75
2023-05-08T08:28:29.970Z,613.12
2023-05-08T08:29:30.150Z,607.50
2023-05-08T08:30:30.251Z,590.62
2023-05-08T08:31:30.424Z,568.12
2023-05-08T08:32:30.501Z,517.50
2023-05-08T08:33:30.676Z,472.50
2023-05-08T08:34:30.737Z,461.25
2023-05-08T08:35:30.894Z,506.25
2023-05-08T08:36:31.034Z,472.50
2023-05-08T08:37:31.157Z,472.50
2023-05-08T08:38:31.279Z,483.75
2023-05-08T08:39:31.383Z,478.12
2023-05-08T08:40:31.683Z,472.50
2023-05-08T08:41:31.649Z,472.50
2023-05-08T08:42:31.805Z,489.38
2023-05-08T08:43:31.921Z,517.50
2023-05-08T08:44:32.032Z,562.50
2023-05-08T08:45:32.166Z,613.12
2023-05-08T08:46:32.424Z,691.88
2023-05-08T08:47:32.462Z,748.12
2023-05-08T08:48:32.562Z,770.62
2023-05-08T08:49:32.690Z,770.62
2023-05-08T08:51:32.934Z,725.62
2023-05-08T08:52:33.048Z,697.50
2023-05-08T08:53:33.159Z,618.75
2023-05-08T08:54:33.259Z,613.12
2023-05-08T08:55:33.437Z,630.00
2023-05-08T08:56:33.541Z,697.50
2023-05-08T08:57:33.661Z,686.25
2023-05-08T08:58:33.763Z,680.62
2023-05-08T08:59:33.889Z,613.12
2023-05-08T09:00:34.175Z,455.62
2023-05-08T09:01:34.201Z,416.25
2023-05-08T09:02:34.318Z,382.50
2023-05-08T09:03:34.520Z,348.75
2023-05-08T09:04:34.476Z,337.50
2023-05-08T09:05:34.625Z,337.50
2023-05-08T09:06:34.833Z,354.38
2023-05-08T09:07:35.175Z,371.25
2023-05-08T09:08:34.963Z,365.62
2023-05-08T09:09:35.061Z,337.50
2023-05-08T09:10:35.228Z,326.25
2023-05-08T09:11:35.254Z,309.38
2023-05-08T09:12:35.411Z,298.12
2023-05-08T09:13:35.774Z,303.75
2023-05-08T09:14:35.726Z,326.25
2023-05-08T09:15:35.874Z,382.50
2023-05-08T09:16:35.932Z,433.12
2023-05-08T09:17:36.062Z,466.88
2023-05-08T09:18:36.148Z,483.75
2023-05-08T09:19:36.287Z,506.25
2023-05-08T09:20:36.957Z,528.75
2023-05-08T09:21:36.530Z,556.88
2023-05-08T09:22:36.629Z,585.00
2023-05-08T09:23:36.809Z,630.00
2023-05-08T09:24:36.940Z,680.62
2023-05-08T09:25:37.055Z,720.00
2023-05-08T09:26:37.219Z,736.88
2023-05-08T09:27:37.325Z,815.62
2023-05-08T09:28:37.463Z,911.25
2023-05-08T09:29:37.595Z,1046.25
2023-05-08T09:30:37.760Z,2266.88
2023-05-08T09:31:37.914Z,1091.25
2023-05-08T09:32:37.983Z,2036.25
2023-05-08T09:33:38.131Z,1642.50
2023-05-08T09:34:38.297Z,2745.00
2023-05-08T09:35:38.641Z,2621.25
2023-05-08T09:36:38.494Z,2553.75
2023-05-08T09:37:38.600Z,2531.25
2023-05-08T09:38:38.719Z,2536.88
2023-05-08T09:39:38.814Z,2480.62
2023-05-08T09:40:40.707Z,1428.75
2023-05-08T09:41:39.062Z,1231.88
2023-05-08T09:42:39.186Z,1316.25
2023-05-08T09:43:39.319Z,1681.88
2023-05-08T09:44:39.425Z,1321.88
2023-05-08T09:45:39.573Z,928.12
2023-05-08T09:46:39.707Z,849.38
2023-05-08T09:47:39.876Z,781.88
2023-05-08T09:48:39.876Z,798.75
2023-05-08T09:49:40.260Z,888.75
2023-05-08T09:50:41.708Z,1035.00
2023-05-08T09:51:40.292Z,1113.75
2023-05-08T09:52:40.421Z,2396.25
2023-05-08T09:53:40.526Z,1732.50
2023-05-08T09:54:40.708Z,1423.12
2023-05-08T09:55:40.757Z,990.00
2023-05-08T09:56:40.854Z,1113.75
2023-05-08T09:57:41.033Z,990.00
2023-05-08T09:58:41.121Z,1710.00
2023-05-08T09:59:41.219Z,776.25
2023-05-08T10:00:41.409Z,759.38
2023-05-08T10:01:41.485Z,1125.00
2023-05-08T10:02:41.661Z,1839.38
2023-05-08T10:03:41.757Z,2233.12
2023-05-08T10:04:41.894Z,2475.00
2023-05-08T10:05:41.960Z,2536.88
2023-05-08T10:06:42.078Z,2497.50
2023-05-08T10:07:42.215Z,2227.50
2023-05-08T10:08:42.310Z,1051.88
2023-05-08T10:09:50.423Z,961.88
2023-05-08T10:10:43.546Z,922.50
2023-05-08T10:11:42.642Z,832.50
2023-05-08T10:12:42.872Z,781.88
2023-05-08T10:13:42.962Z,720.00
2023-05-08T10:14:46.065Z,658.12
2023-05-08T10:15:43.191Z,590.62
2023-05-08T10:16:43.362Z,511.88
2023-05-08T10:17:43.470Z,478.12
2023-05-08T10:18:43.620Z,483.75
2023-05-08T10:19:43.699Z,500.62
2023-05-08T10:20:43.898Z,545.62
2023-05-08T10:21:43.969Z,613.12
2023-05-08T10:22:44.059Z,613.12
2023-05-08T10:23:44.219Z,534.38
2023-05-08T10:24:44.297Z,489.38
2023-05-08T10:25:44.422Z,483.75
2023-05-08T10:26:53.813Z,506.25
2023-05-08T10:27:45.650Z,573.75
2023-05-08T10:28:44.852Z,708.75
2023-05-08T10:29:44.895Z,928.12
2023-05-08T10:30:45.035Z,1018.12
2023-05-08T10:31:45.168Z,1035.00
2023-05-08T10:32:45.293Z,753.75
2023-05-08T10:33:45.407Z,686.25
2023-05-08T10:34:45.475Z,703.12
2023-05-08T10:35:45.616Z,720.00
2023-05-08T10:36:45.659Z,731.25
2023-05-08T10:37:45.783Z,753.75
2023-05-08T10:38:45.893Z,759.38
2023-05-08T10:39:45.999Z,759.38
2023-05-08T10:40:46.205Z,787.50
2023-05-08T10:41:46.260Z,849.38
2023-05-08T10:42:46.290Z,855.00
2023-05-08T10:43:46.431Z,810.00
2023-05-08T10:44:46.526Z,804.38
2023-05-08T10:45:46.634Z,860.62
2023-05-08T10:46:46.817Z,1760.62
2023-05-08T10:47:48.903Z,1141.88
2023-05-08T10:48:47.010Z,1085.62
2023-05-08T10:49:47.103Z,1040.62
2023-05-08T10:50:47.234Z,905.62
2023-05-08T10:51:47.387Z,781.88
2023-05-08T10:52:47.505Z,675.00
2023-05-08T10:53:47.639Z,630.00
2023-05-08T10:54:47.769Z,601.88
2023-05-08T10:55:47.870Z,601.88
2023-05-08T10:56:48.044Z,613.12
2023-05-08T10:57:48.154Z,641.25
2023-05-08T10:58:48.315Z,663.75
2023-05-08T10:59:48.390Z,646.88
2023-05-08T11:00:48.571Z,635.62
2023-05-08T11:01:48.664Z,641.25
2023-05-08T11:02:48.816Z,675.00
2023-05-08T11:03:48.945Z,787.50
2023-05-08T11:04:49.087Z,984.38
2023-05-08T11:05:49.114Z,1198.12
2023-05-08T11:06:49.524Z,1411.88
2023-05-08T11:07:49.398Z,1687.50
2023-05-08T11:08:49.509Z,2058.75
2023-05-08T11:09:49.699Z,2413.12
2023-05-08T11:10:49.783Z,2525.62
2023-05-08T11:11:49.876Z,1963.12
2023-05-08T11:12:50.015Z,1951.88
2023-05-08T11:13:50.107Z,1805.62
2023-05-08T11:14:50.241Z,1929.38
2023-05-08T11:15:50.402Z,2216.25
2023-05-08T11:16:50.471Z,1597.50
2023-05-08T11:17:50.742Z,1215.00
2023-05-08T11:18:50.739Z,1181.25
2023-05-08T11:19:50.867Z,1170.00
2023-05-08T11:20:50.969Z,1181.25
2023-05-08T11:21:51.088Z,1271.25
2023-05-08T11:22:51.178Z,1141.88
2023-05-08T11:23:51.362Z,1147.50
2023-05-08T11:24:51.459Z,1175.62
2023-05-08T11:25:51.862Z,1276.88
2023-05-08T11:26:51.710Z,1546.88
2023-05-08T11:27:51.897Z,2334.38
2023-05-08T11:28:51.906Z,2188.12
2023-05-08T11:29:52.102Z,2272.50
2023-05-08T11:30:52.154Z,2340.00
2023-05-08T11:31:52.351Z,2193.75
2023-05-08T11:32:52.412Z,1395.00
2023-05-08T11:33:52.551Z,1732.50
2023-05-08T11:34:52.705Z,1951.88
2023-05-08T11:35:52.844Z,2019.38
2023-05-08T11:36:52.975Z,2058.75
2023-05-08T11:37:53.078Z,2041.88
2023-05-08T11:38:54.290Z,1980.00
2023-05-08T11:39:53.362Z,1923.75
2023-05-08T11:40:53.482Z,1850.62
2023-05-08T11:41:53.559Z,1563.75
2023-05-08T11:42:53.646Z,1350.00
2023-05-08T11:43:53.873Z,1333.12
2023-05-08T11:44:53.888Z,1276.88
2023-05-08T11:45:54.038Z,1321.88
2023-05-08T11:46:54.225Z,1305.00
2023-05-08T11:47:54.348Z,1473.75
2023-05-08T11:48:54.401Z,1428.75
2023-05-08T11:49:54.538Z,1434.38
2023-05-08T11:50:54.638Z,1411.88
2023-05-08T11:51:54.980Z,1327.50
2023-05-08T11:52:54.845Z,1237.50
2023-05-08T11:53:54.933Z,1125.00
2023-05-08T11:54:55.050Z,1068.75
2023-05-08T11:55:55.146Z,1046.25
2023-05-08T11:56:55.293Z,1057.50
2023-05-08T11:57:55.410Z,1046.25
2023-05-08T11:58:55.541Z,1001.25
2023-05-08T11:59:55.671Z,990.00
2023-05-08T12:00:55.884Z,967.50
2023-05-08T12:02:07.833Z,945.00
2023-05-08T12:02:57.188Z,945.00
2023-05-08T12:03:56.358Z,978.75
2023-05-08T12:04:56.321Z,990.00
2023-05-08T12:05:56.407Z,1057.50
2023-05-08T12:06:56.481Z,1170.00
2023-05-08T12:07:56.595Z,1271.25
2023-05-08T12:08:56.702Z,1395.00
2023-05-08T12:09:56.846Z,1434.38
2023-05-08T12:10:57.012Z,1473.75
2023-05-08T12:11:57.053Z,1738.12
2023-05-08T12:12:57.259Z,1434.38
2023-05-08T12:13:57.294Z,1327.50
2023-05-08T12:14:57.393Z,1389.38
2023-05-08T12:15:57.544Z,1513.12
2023-05-08T12:16:57.684Z,1288.12
2023-05-08T12:17:57.884Z,1113.75
2023-05-08T12:18:57.894Z,928.12
2023-05-08T12:19:57.984Z,855.00
2023-05-08T12:20:58.216Z,826.88
2023-05-08T12:21:58.291Z,815.62
2023-05-08T12:22:58.428Z,787.50
2023-05-08T12:23:58.555Z,736.88
2023-05-08T12:24:58.657Z,720.00
2023-05-08T12:25:58.770Z,697.50
2023-05-08T12:26:58.890Z,669.38
2023-05-08T12:27:59.081Z,635.62
2023-05-08T12:28:59.151Z,613.12
2023-05-08T12:29:59.253Z,590.62
2023-05-08T12:30:59.500Z,545.62
2023-05-08T12:31:59.519Z,495.00
2023-05-08T12:32:59.715Z,455.62
2023-05-08T12:33:59.803Z,405.00
2023-05-08T12:34:59.874Z,354.38
2023-05-08T12:36:00.036Z,315.00
2023-05-08T12:37:00.127Z,292.50
2023-05-08T12:38:00.262Z,298.12
2023-05-08T12:39:00.489Z,315.00
2023-05-08T12:40:00.532Z,331.88
2023-05-08T12:41:00.714Z,337.50
2023-05-08T12:42:01.130Z,343.12
2023-05-08T12:43:00.930Z,337.50
2023-05-08T12:44:01.028Z,320.62
2023-05-08T12:45:01.177Z,286.88